sensor_id;sensor_type;location;lat;lon;timestamp;pressure;altitude;pressure_sealevel;temperature
78905;BMP280;68291;49.602;8.722;2023-03-20T00:02:41;99811.59;;;9.62
78905;BMP280;68291;49.602;8.722;2023-03-20T00:05:22;99809.97;;;9.59
78905;BMP280;68291;49.602;8.722;2023-03-20T00:07:57;99808.31;;;9.58
78905;BMP280;68291;49.602;8.722;2023-03-20T00:10:42;99815.97;;;9.60
78905;BMP280;68291;49.602;8.722;2023-03-20T00:13:28;99815.19;;;9.58
78905;BMP280;68291;49.602;8.722;2023-03-20T00:16:06;99818.56;;;9.60
78905;BMP280;68291;49.602;8.722;2023-03-20T00:18:50;99812.38;;;9.64
78905;BMP280;68291;49.602;8.722;2023-03-20T00:21:22;99822.50;;;9.68
78905;BMP280;68291;49.602;8.722;2023-03-20T00:23:52;99828.41;;;9.70
78905;BMP280;68291;49.602;8.722;2023-03-20T00:26:29;99824.97;;;9.71
78905;BMP280;68291;49.602;8.722;2023-03-20T00:29:22;99826.63;;;9.72
78905;BMP280;68291;49.602;8.722;2023-03-20T00:32:13;99827.50;;;9.73
78905;BMP280;68291;49.602;8.722;2023-03-20T00:34:52;99831.00;;;9.70
78905;BMP280;68291;49.602;8.722;2023-03-20T00:37:37;99828.66;;;9.64
78905;BMP280;68291;49.602;8.722;2023-03-20T00:40:31;99833.06;;;9.61
78905;BMP280;68291;49.602;8.722;2023-03-20T00:43:13;99837.31;;;9.62
78905;BMP280;68291;49.602;8.722;2023-03-20T00:46:28;99827.97;;;9.59
78905;BMP280;68291;49.602;8.722;2023-03-20T00:49:02;99835.50;;;9.64
78905;BMP280;68291;49.602;8.722;2023-03-20T00:51:38;99832.72;;;9.70
78905;BMP280;68291;49.602;8.722;2023-03-20T00:54:26;99834.25;;;9.75
78905;BMP280;68291;49.602;8.722;2023-03-20T00:57:04;99827.16;;;9.82
78905;BMP280;68291;49.602;8.722;2023-03-20T00:59:41;99823.66;;;9.83
78905;BMP280;68291;49.602;8.722;2023-03-20T01:02:31;99827.97;;;9.82
78905;BMP280;68291;49.602;8.722;2023-03-20T01:05:08;99824.50;;;9.83
78905;BMP280;68291;49.602;8.722;2023-03-20T01:07:54;99831.34;;;9.84
78905;BMP280;68291;49.602;8.722;2023-03-20T01:10:48;99833.72;;;9.89
78905;BMP280;68291;49.602;8.722;2023-03-20T01:13:39;99831.69;;;9.98
78905;BMP280;68291;49.602;8.722;2023-03-20T01:16:22;99840.06;;;10.03
78905;BMP280;68291;49.602;8.722;2023-03-20T01:19:04;99833.06;;;10.06
78905;BMP280;68291;49.602;8.722;2023-03-20T01:21:46;99831.09;;;10.13
78905;BMP280;68291;49.602;8.722;2023-03-20T01:24:42;99826.72;;;10.15
78905;BMP280;68291;49.602;8.722;2023-03-20T01:27:30;99827.56;;;10.15
78905;BMP280;68291;49.602;8.722;2023-03-20T01:30:29;99835.09;;;10.20
78905;BMP280;68291;49.602;8.722;2023-03-20T01:33:15;99830.56;;;10.26
78905;BMP280;68291;49.602;8.722;2023-03-20T01:35:52;99830.56;;;10.26
78905;BMP280;68291;49.602;8.722;2023-03-20T01:38:30;99835.78;;;10.25
78905;BMP280;68291;49.602;8.722;2023-03-20T01:41:06;99834.81;;;10.27
78905;BMP280;68291;49.602;8.722;2023-03-20T01:44:17;99836.44;;;10.29
78905;BMP280;68291;49.602;8.722;2023-03-20T01:46:53;99844.09;;;10.31
78905;BMP280;68291;49.602;8.722;2023-03-20T01:50:16;99844.97;;;10.30
78905;BMP280;68291;49.602;8.722;2023-03-20T01:53:24;99844.09;;;10.31
78905;BMP280;68291;49.602;8.722;2023-03-20T01:56:00;99847.38;;;10.34
78905;BMP280;68291;49.602;8.722;2023-03-20T01:58:58;99844.75;;;10.36
78905;BMP280;68291;49.602;8.722;2023-03-20T02:01:46;99837.72;;;10.39
78905;BMP280;68291;49.602;8.722;2023-03-20T02:04:25;99838.31;;;10.46
78905;BMP280;68291;49.602;8.722;2023-03-20T02:07:23;99845.94;;;10.49
78905;BMP280;68291;49.602;8.722;2023-03-20T02:10:14;99843.19;;;10.53
78905;BMP280;68291;49.602;8.722;2023-03-20T02:13:03;99844.78;;;10.56
78905;BMP280;68291;49.602;8.722;2023-03-20T02:16:01;99843.00;;;10.58
78905;BMP280;68291;49.602;8.722;2023-03-20T02:18:57;99849.75;;;10.60
78905;BMP280;68291;49.602;8.722;2023-03-20T02:22:11;99842.22;;;10.56
78905;BMP280;68291;49.602;8.722;2023-03-20T02:29:16;99848.63;;;10.46
78905;BMP280;68291;49.602;8.722;2023-03-20T02:33:05;99848.50;;;10.49
78905;BMP280;68291;49.602;8.722;2023-03-20T02:39:51;99835.59;;;10.50
78905;BMP280;68291;49.602;8.722;2023-03-20T02:42:57;99842.75;;;10.63
78905;BMP280;68291;49.602;8.722;2023-03-20T02:45:40;99839.03;;;10.70
78905;BMP280;68291;49.602;8.722;2023-03-20T02:48:32;99837.81;;;10.79
78905;BMP280;68291;49.602;8.722;2023-03-20T02:51:15;99839.28;;;10.84
78905;BMP280;68291;49.602;8.722;2023-03-20T02:54:11;99839.19;;;10.87
78905;BMP280;68291;49.602;8.722;2023-03-20T02:57:04;99840.91;;;10.87
78905;BMP280;68291;49.602;8.722;2023-03-20T02:59:55;99840.91;;;10.87
78905;BMP280;68291;49.602;8.722;2023-03-20T03:02:37;99848.56;;;10.88
78905;BMP280;68291;49.602;8.722;2023-03-20T03:05:33;99845.22;;;10.86
78905;BMP280;68291;49.602;8.722;2023-03-20T03:08:20;99848.56;;;10.88
78905;BMP280;68291;49.602;8.722;2023-03-20T03:11:05;99844.25;;;10.89
78905;BMP280;68291;49.602;8.722;2023-03-20T03:14:22;99846.75;;;10.90
78905;BMP280;68291;49.602;8.722;2023-03-20T03:17:03;99851.91;;;10.90
78905;BMP280;68291;49.602;8.722;2023-03-20T03:20:02;99848.31;;;10.94
78905;BMP280;68291;49.602;8.722;2023-03-20T03:22:56;99849.88;;;10.98
78905;BMP280;68291;49.602;8.722;2023-03-20T03:25:35;99845.41;;;11.01
78905;BMP280;68291;49.602;8.722;2023-03-20T03:28:27;99852.84;;;11.09
78905;BMP280;68291;49.602;8.722;2023-03-20T03:31:30;99852.69;;;11.12
78905;BMP280;68291;49.602;8.722;2023-03-20T03:34:11;99853.47;;;11.14
78905;BMP280;68291;49.602;8.722;2023-03-20T03:37:00;99846.50;;;11.16
78905;BMP280;68291;49.602;8.722;2023-03-20T03:39:40;99846.38;;;11.19
78905;BMP280;68291;49.602;8.722;2023-03-20T03:42:30;99844.66;;;11.19
78905;BMP280;68291;49.602;8.722;2023-03-20T03:45:11;99843.69;;;11.22
78905;BMP280;68291;49.602;8.722;2023-03-20T03:48:03;99837.63;;;11.23
78905;BMP280;68291;49.602;8.722;2023-03-20T03:51:01;99854.69;;;11.25
78905;BMP280;68291;49.602;8.722;2023-03-20T03:53:48;99850.25;;;11.28
78905;BMP280;68291;49.602;8.722;2023-03-20T03:56:41;99846.75;;;11.29
78905;BMP280;68291;49.602;8.722;2023-03-20T03:59:36;99853.59;;;11.30
78905;BMP280;68291;49.602;8.722;2023-03-20T04:02:27;99854.56;;;11.28
78905;BMP280;68291;49.602;8.722;2023-03-20T04:05:17;99856.31;;;11.27
78905;BMP280;68291;49.602;8.722;2023-03-20T04:07:55;99856.22;;;11.29
78905;BMP280;68291;49.602;8.722;2023-03-20T04:10:41;99868.34;;;11.27
78905;BMP280;68291;49.602;8.722;2023-03-20T04:13:37;99863.34;;;11.24
78905;BMP280;68291;49.602;8.722;2023-03-20T04:16:21;99866.06;;;11.21
78905;BMP280;68291;49.602;8.722;2023-03-20T04:18:57;99862.50;;;11.24
78905;BMP280;68291;49.602;8.722;2023-03-20T04:21:50;99863.19;;;11.27
78905;BMP280;68291;49.602;8.722;2023-03-20T04:24:32;99871.69;;;11.29
78905;BMP280;68291;49.602;8.722;2023-03-20T04:27:12;99871.50;;;11.33
78905;BMP280;68291;49.602;8.722;2023-03-20T04:30:13;99873.97;;;11.36
78905;BMP280;68291;49.602;8.722;2023-03-20T04:33:04;99880.69;;;11.40
78905;BMP280;68291;49.602;8.722;2023-03-20T04:36:15;99877.19;;;11.41
78905;BMP280;68291;49.602;8.722;2023-03-20T04:38:59;99882.22;;;11.44
78905;BMP280;68291;49.602;8.722;2023-03-20T04:41:54;99873.47;;;11.48
78905;BMP280;68291;49.602;8.722;2023-03-20T04:44:47;99865.53;;;11.53
78905;BMP280;68291;49.602;8.722;2023-03-20T04:47:43;99863.72;;;11.55
78905;BMP280;68291;49.602;8.722;2023-03-20T04:50:20;99860.25;;;11.56
78905;BMP280;68291;49.602;8.722;2023-03-20T04:53:01;99869.59;;;11.58
78905;BMP280;68291;49.602;8.722;2023-03-20T04:55:37;99867.78;;;11.60
78905;BMP280;68291;49.602;8.722;2023-03-20T04:58:16;99862.47;;;11.63
78905;BMP280;68291;49.602;8.722;2023-03-20T05:01:03;99861.44;;;11.67
78905;BMP280;68291;49.602;8.722;2023-03-20T05:03:34;99869.19;;;11.67
78905;BMP280;68291;49.602;8.722;2023-03-20T05:06:15;99875.44;;;11.62
78905;BMP280;68291;49.602;8.722;2023-03-20T05:08:45;99885.94;;;11.57
78905;BMP280;68291;49.602;8.722;2023-03-20T05:11:36;99886.91;;;11.55
78905;BMP280;68291;49.602;8.722;2023-03-20T05:14:35;99883.50;;;11.54
78905;BMP280;68291;49.602;8.722;2023-03-20T05:17:47;99877.22;;;11.60
78905;BMP280;68291;49.602;8.722;2023-03-20T05:20:45;99878.78;;;11.63
78905;BMP280;68291;49.602;8.722;2023-03-20T05:23:34;99881.16;;;11.68
78905;BMP280;68291;49.602;8.722;2023-03-20T05:26:24;99881.94;;;11.70
78905;BMP280;68291;49.602;8.722;2023-03-20T05:29:33;99889.66;;;11.70
78905;BMP280;68291;49.602;8.722;2023-03-20T05:32:39;99888.78;;;11.71
78905;BMP280;68291;49.602;8.722;2023-03-20T05:35:35;99892.13;;;11.73
78905;BMP280;68291;49.602;8.722;2023-03-20T05:38:38;99894.41;;;11.79
78905;BMP280;68291;49.602;8.722;2023-03-20T05:41:37;99886.41;;;11.85
78905;BMP280;68291;49.602;8.722;2023-03-20T05:44:44;99882.66;;;11.92
78905;BMP280;68291;49.602;8.722;2023-03-20T05:47:42;99883.31;;;11.97
78905;BMP280;68291;49.602;8.722;2023-03-20T05:50:35;99878.91;;;11.98
78905;BMP280;68291;49.602;8.722;2023-03-20T05:53:14;99871.94;;;12.00
78905;BMP280;68291;49.602;8.722;2023-03-20T05:56:19;99883.00;;;12.02
78905;BMP280;68291;49.602;8.722;2023-03-20T05:59:22;99869.75;;;12.10
78905;BMP280;68291;49.602;8.722;2023-03-20T06:02:27;99855.00;;;12.13
78905;BMP280;68291;49.602;8.722;2023-03-20T06:05:51;99861.81;;;12.14
78905;BMP280;68291;49.602;8.722;2023-03-20T06:08:25;99867.59;;;12.19
78905;BMP280;68291;49.602;8.722;2023-03-20T06:11:20;99875.34;;;12.19
78905;BMP280;68291;49.602;8.722;2023-03-20T06:14:09;99885.03;;;12.14
78905;BMP280;68291;49.602;8.722;2023-03-20T06:16:55;99884.28;;;12.12
78905;BMP280;68291;49.602;8.722;2023-03-20T06:19:59;99896.13;;;12.16
78905;BMP280;68291;49.602;8.722;2023-03-20T06:22:32;99893.41;;;12.19
78905;BMP280;68291;49.602;8.722;2023-03-20T06:25:16;99898.50;;;12.21
78905;BMP280;68291;49.602;8.722;2023-03-20T06:27:50;99903.53;;;12.24
78905;BMP280;68291;49.602;8.722;2023-03-20T06:30:27;99890.41;;;12.28
78905;BMP280;68291;49.602;8.722;2023-03-20T06:33:02;99895.28;;;12.34
78905;BMP280;68291;49.602;8.722;2023-03-20T06:36:07;99903.53;;;12.42
78905;BMP280;68291;49.602;8.722;2023-03-20T06:38:45;99909.03;;;12.53
78905;BMP280;68291;49.602;8.722;2023-03-20T06:41:34;99901.13;;;12.56
78905;BMP280;68291;49.602;8.722;2023-03-20T06:44:24;99904.47;;;12.58
78905;BMP280;68291;49.602;8.722;2023-03-20T06:47:09;99905.28;;;12.58
78905;BMP280;68291;49.602;8.722;2023-03-20T06:49:42;99907.81;;;12.60
78905;BMP280;68291;49.602;8.722;2023-03-20T06:52:42;99917.88;;;12.65
78905;BMP280;68291;49.602;8.722;2023-03-20T06:55:57;99918.41;;;12.72
78905;BMP280;68291;49.602;8.722;2023-03-20T06:58:48;99923.34;;;12.78
78905;BMP280;68291;49.602;8.722;2023-03-20T07:01:20;99923.34;;;12.78
78905;BMP280;68291;49.602;8.722;2023-03-20T07:04:21;99922.59;;;12.74
78905;BMP280;68291;49.602;8.722;2023-03-20T07:07:18;99923.25;;;12.79
78905;BMP280;68291;49.602;8.722;2023-03-20T07:10:24;99925.53;;;12.85
78905;BMP280;68291;49.602;8.722;2023-03-20T07:13:02;99923.88;;;12.84
78905;BMP280;68291;49.602;8.722;2023-03-20T07:15:53;99931.63;;;12.84
78905;BMP280;68291;49.602;8.722;2023-03-20T07:18:42;99932.25;;;12.89
78905;BMP280;68291;49.602;8.722;2023-03-20T07:21:20;99930.44;;;12.91
78905;BMP280;68291;49.602;8.722;2023-03-20T07:24:02;99926.91;;;12.92
78905;BMP280;68291;49.602;8.722;2023-03-20T07:26:33;99925.88;;;12.96
78905;BMP280;68291;49.602;8.722;2023-03-20T07:29:22;99920.47;;;13.00
78905;BMP280;68291;49.602;8.722;2023-03-20T07:32:11;99926.16;;;13.07
78905;BMP280;68291;49.602;8.722;2023-03-20T07:34:57;99920.66;;;13.14
78905;BMP280;68291;49.602;8.722;2023-03-20T07:37:53;99925.44;;;13.22
78905;BMP280;68291;49.602;8.722;2023-03-20T07:40:33;99924.31;;;13.27
78905;BMP280;68291;49.602;8.722;2023-03-20T07:43:14;99923.97;;;13.33
78905;BMP280;68291;49.602;8.722;2023-03-20T07:46:13;99928.16;;;13.35
78905;BMP280;68291;49.602;8.722;2023-03-20T07:49:03;99934.03;;;13.39
78905;BMP280;68291;49.602;8.722;2023-03-20T07:51:44;99926.31;;;13.37
78905;BMP280;68291;49.602;8.722;2023-03-20T07:54:17;99935.19;;;13.34
78905;BMP280;68291;49.602;8.722;2023-03-20T07:56:52;99931.97;;;13.29
78905;BMP280;68291;49.602;8.722;2023-03-20T07:59:47;99941.41;;;13.30
78905;BMP280;68291;49.602;8.722;2023-03-20T08:02:21;99937.00;;;13.32
78905;BMP280;68291;49.602;8.722;2023-03-20T08:05:18;99934.56;;;13.29
78905;BMP280;68291;49.602;8.722;2023-03-20T08:08:14;99946.72;;;13.27
78905;BMP280;68291;49.602;8.722;2023-03-20T08:11:02;99944.13;;;13.27
78905;BMP280;68291;49.602;8.722;2023-03-20T08:13:54;99944.13;;;13.27
78905;BMP280;68291;49.602;8.722;2023-03-20T08:16:45;99949.22;;;13.28
78905;BMP280;68291;49.602;8.722;2023-03-20T08:19:39;99946.59;;;13.30
78905;BMP280;68291;49.602;8.722;2023-03-20T08:22:28;99951.81;;;13.28
78905;BMP280;68291;49.602;8.722;2023-03-20T08:25:01;99948.41;;;13.28
78905;BMP280;68291;49.602;8.722;2023-03-20T08:27:43;99952.66;;;13.29
78905;BMP280;68291;49.602;8.722;2023-03-20T08:30:30;99951.00;;;13.28
78905;BMP280;68291;49.602;8.722;2023-03-20T08:33:17;99958.13;;;13.23
78905;BMP280;68291;49.602;8.722;2023-03-20T08:35:58;99959.97;;;13.21
78905;BMP280;68291;49.602;8.722;2023-03-20T08:38:54;99957.50;;;13.18
78905;BMP280;68291;49.602;8.722;2023-03-20T08:41:37;99955.97;;;13.14
78905;BMP280;68291;49.602;8.722;2023-03-20T08:44:17;99959.28;;;13.17
78905;BMP280;68291;49.602;8.722;2023-03-20T08:47:07;99960.09;;;13.18
78905;BMP280;68291;49.602;8.722;2023-03-20T08:49:59;99968.78;;;13.17
78905;BMP280;68291;49.602;8.722;2023-03-20T08:52:39;99970.59;;;13.15
78905;BMP280;68291;49.602;8.722;2023-03-20T08:55:28;99973.41;;;13.10
78905;BMP280;68291;49.602;8.722;2023-03-20T08:58:08;99978.38;;;13.15
78905;BMP280;68291;49.602;8.722;2023-03-20T09:00:41;99979.91;;;13.19
78905;BMP280;68291;49.602;8.722;2023-03-20T09:03:20;99984.31;;;13.17
78905;BMP280;68291;49.602;8.722;2023-03-20T09:06:09;99987.78;;;13.16
78905;BMP280;68291;49.602;8.722;2023-03-20T09:08:50;99989.38;;;13.18
78905;BMP280;68291;49.602;8.722;2023-03-20T09:11:36;99985.06;;;13.19
78905;BMP280;68291;49.602;8.722;2023-03-20T09:14:14;99987.78;;;13.16
78905;BMP280;68291;49.602;8.722;2023-03-20T09:16:57;99992.06;;;13.17
78905;BMP280;68291;49.602;8.722;2023-03-20T09:19:39;99990.59;;;13.11
78905;BMP280;68291;49.602;8.722;2023-03-20T09:22:46;99985.69;;;13.05
78905;BMP280;68291;49.602;8.722;2023-03-20T09:25:30;99990.97;;;13.04
78905;BMP280;68291;49.602;8.722;2023-03-20T09:28:21;99995.97;;;13.07
78905;BMP280;68291;49.602;8.722;2023-03-20T09:31:14;99997.50;;;13.11
78905;BMP280;68291;49.602;8.722;2023-03-20T09:33:58;99996.75;;;13.09
78905;BMP280;68291;49.602;8.722;2023-03-20T09:36:50;100004.22;;;13.15
78905;BMP280;68291;49.602;8.722;2023-03-20T09:39:46;100005.06;;;13.15
78905;BMP280;68291;49.602;8.722;2023-03-20T09:42:35;100010.00;;;13.20
78905;BMP280;68291;49.602;8.722;2023-03-20T09:45:16;100006.19;;;13.27
78905;BMP280;68291;49.602;8.722;2023-03-20T09:48:16;100009.09;;;13.37
78905;BMP280;68291;49.602;8.722;2023-03-20T09:51:17;100005.94;;;13.49
78905;BMP280;68291;49.602;8.722;2023-03-20T09:54:06;100004.25;;;13.65
78905;BMP280;68291;49.602;8.722;2023-03-20T09:57:19;100007.59;;;13.84
78905;BMP280;68291;49.602;8.722;2023-03-20T10:00:19;100018.06;;;13.98
78905;BMP280;68291;49.602;8.722;2023-03-20T10:03:02;100007.13;;;14.09
78905;BMP280;68291;49.602;8.722;2023-03-20T10:05:53;100009.19;;;14.20
78905;BMP280;68291;49.602;8.722;2023-03-20T10:08:32;100014.69;;;14.29
78905;BMP280;68291;49.602;8.722;2023-03-20T10:11:33;100003.84;;;14.38
78905;BMP280;68291;49.602;8.722;2023-03-20T10:14:28;100006.72;;;14.49
78905;BMP280;68291;49.602;8.722;2023-03-20T10:17:45;99997.94;;;14.67
78905;BMP280;68291;49.602;8.722;2023-03-20T10:20:34;99997.72;;;14.86
78905;BMP280;68291;49.602;8.722;2023-03-20T10:23:19;99983.16;;;14.99
78905;BMP280;68291;49.602;8.722;2023-03-20T10:26:23;99987.97;;;15.05
78905;BMP280;68291;49.602;8.722;2023-03-20T10:29:31;99995.00;;;15.03
78905;BMP280;68291;49.602;8.722;2023-03-20T10:32:19;99997.78;;;15.00
78905;BMP280;68291;49.602;8.722;2023-03-20T10:35:12;100000.63;;;14.96
78905;BMP280;68291;49.602;8.722;2023-03-20T10:38:10;99994.63;;;14.95
78905;BMP280;68291;49.602;8.722;2023-03-20T10:41:09;99991.59;;;14.87
78905;BMP280;68291;49.602;8.722;2023-03-20T10:43:52;99990.84;;;14.85
78905;BMP280;68291;49.602;8.722;2023-03-20T10:46:52;99997.22;;;14.80
78905;BMP280;68291;49.602;8.722;2023-03-20T10:49:41;99996.78;;;14.72
78905;BMP280;68291;49.602;8.722;2023-03-20T10:52:27;100005.63;;;14.68
78905;BMP280;68291;49.602;8.722;2023-03-20T10:55:10;100001.72;;;14.76
78905;BMP280;68291;49.602;8.722;2023-03-20T10:57:52;99990.75;;;14.87
78905;BMP280;68291;49.602;8.722;2023-03-20T11:00:34;99986.47;;;14.86
78905;BMP280;68291;49.602;8.722;2023-03-20T11:03:32;99983.41;;;14.95
78905;BMP280;68291;49.602;8.722;2023-03-20T11:06:27;99987.22;;;15.03
78905;BMP280;68291;49.602;8.722;2023-03-20T11:09:19;99979.22;;;15.07
78905;BMP280;68291;49.602;8.722;2023-03-20T11:12:02;99980.94;;;15.07
78905;BMP280;68291;49.602;8.722;2023-03-20T11:14:46;99983.66;;;15.06
78905;BMP280;68291;49.602;8.722;2023-03-20T11:17:28;99984.63;;;15.03
78905;BMP280;68291;49.602;8.722;2023-03-20T11:20:14;99986.50;;;15.01
78905;BMP280;68291;49.602;8.722;2023-03-20T11:23:06;99982.47;;;14.96
78905;BMP280;68291;49.602;8.722;2023-03-20T11:25:47;99986.41;;;14.87
78905;BMP280;68291;49.602;8.722;2023-03-20T11:28:36;99985.16;;;14.79
78905;BMP280;68291;49.602;8.722;2023-03-20T11:31:34;99980.06;;;14.77
78905;BMP280;68291;49.602;8.722;2023-03-20T11:34:24;99976.47;;;14.80
78905;BMP280;68291;49.602;8.722;2023-03-20T11:37:23;99982.22;;;14.85
78905;BMP280;68291;49.602;8.722;2023-03-20T11:40:15;99972.44;;;14.90
78905;BMP280;68291;49.602;8.722;2023-03-20T11:43:11;99985.47;;;15.04
78905;BMP280;68291;49.602;8.722;2023-03-20T11:45:55;99974.78;;;15.25
78905;BMP280;68291;49.602;8.722;2023-03-20T11:48:39;99971.69;;;15.47
78905;BMP280;68291;49.602;8.722;2023-03-20T11:51:22;99969.16;;;15.75
78905;BMP280;68291;49.602;8.722;2023-03-20T11:54:21;99955.91;;;16.07
78905;BMP280;68291;49.602;8.722;2023-03-20T11:56:58;99953.22;;;16.36
78905;BMP280;68291;49.602;8.722;2023-03-20T11:59:37;99949.09;;;16.60
78905;BMP280;68291;49.602;8.722;2023-03-20T12:02:22;99943.81;;;16.75
78905;BMP280;68291;49.602;8.722;2023-03-20T12:05:31;99943.97;;;16.98
78905;BMP280;68291;49.602;8.722;2023-03-20T12:08:13;99940.59;;;17.10
78905;BMP280;68291;49.602;8.722;2023-03-20T12:11:39;99935.47;;;17.22
78905;BMP280;68291;49.602;8.722;2023-03-20T12:14:24;99934.66;;;17.34
78905;BMP280;68291;49.602;8.722;2023-03-20T12:17:14;99928.75;;;17.45
78905;BMP280;68291;49.602;8.722;2023-03-20T12:19:49;99920.75;;;17.60
78905;BMP280;68291;49.602;8.722;2023-03-20T12:22:58;99920.44;;;17.64
78905;BMP280;68291;49.602;8.722;2023-03-20T12:25:48;99916.25;;;17.62
78905;BMP280;68291;49.602;8.722;2023-03-20T12:28:41;99910.31;;;17.60
78905;BMP280;68291;49.602;8.722;2023-03-20T12:31:31;99912.81;;;17.49
78905;BMP280;68291;49.602;8.722;2023-03-20T12:34:16;99905.09;;;17.35
78905;BMP280;68291;49.602;8.722;2023-03-20T12:36:51;99912.66;;;17.26
78905;BMP280;68291;49.602;8.722;2023-03-20T12:39:38;99907.69;;;17.09
78905;BMP280;68291;49.602;8.722;2023-03-20T12:42:47;99902.69;;;17.06
78905;BMP280;68291;49.602;8.722;2023-03-20T12:45:33;99899.34;;;17.04
78905;BMP280;68291;49.602;8.722;2023-03-20T12:48:41;99901.22;;;17.02
78905;BMP280;68291;49.602;8.722;2023-03-20T12:51:30;99895.19;;;17.02
78905;BMP280;68291;49.602;8.722;2023-03-20T12:54:55;99897.28;;;17.09
78905;BMP280;68291;49.602;8.722;2023-03-20T12:57:54;99888.34;;;17.13
78905;BMP280;68291;49.602;8.722;2023-03-20T13:00:47;99893.41;;;17.16
78905;BMP280;68291;49.602;8.722;2023-03-20T13:04:05;99888.34;;;17.13
78905;BMP280;68291;49.602;8.722;2023-03-20T13:06:53;99888.75;;;17.07
78905;BMP280;68291;49.602;8.722;2023-03-20T13:09:49;99885.47;;;17.17
78905;BMP280;68291;49.602;8.722;2023-03-20T13:12:51;99889.75;;;17.31
78905;BMP280;68291;49.602;8.722;2023-03-20T13:16:09;99877.81;;;17.41
78905;BMP280;68291;49.602;8.722;2023-03-20T13:18:57;99879.69;;;17.39
78905;BMP280;68291;49.602;8.722;2023-03-20T13:21:56;99869.47;;;17.36
78905;BMP280;68291;49.602;8.722;2023-03-20T13:24:40;99872.09;;;17.36
78905;BMP280;68291;49.602;8.722;2023-03-20T13:27:42;99867.19;;;17.31
78905;BMP280;68291;49.602;8.722;2023-03-20T13:30:24;99872.41;;;17.31
78905;BMP280;68291;49.602;8.722;2023-03-20T13:33:35;99858.84;;;17.39
78905;BMP280;68291;49.602;8.722;2023-03-20T13:36:42;99854.88;;;17.46
78905;BMP280;68291;49.602;8.722;2023-03-20T13:39:57;99848.44;;;17.39
78905;BMP280;68291;49.602;8.722;2023-03-20T13:42:50;99852.41;;;17.44
78905;BMP280;68291;49.602;8.722;2023-03-20T13:45:38;99838.34;;;17.47
78905;BMP280;68291;49.602;8.722;2023-03-20T13:48:32;99840.53;;;17.52
78905;BMP280;68291;49.602;8.722;2023-03-20T13:51:19;99841.97;;;17.56
78905;BMP280;68291;49.602;8.722;2023-03-20T13:54:33;99835.53;;;17.49
78905;BMP280;68291;49.602;8.722;2023-03-20T14:00:34;99823.34;;;17.50
78905;BMP280;68291;49.602;8.722;2023-03-20T14:03:19;99821.38;;;17.53
78905;BMP280;68291;49.602;8.722;2023-03-20T14:06:47;99824.69;;;17.55
78905;BMP280;68291;49.602;8.722;2023-03-20T14:09:34;99824.59;;;17.57
78905;BMP280;68291;49.602;8.722;2023-03-20T14:12:16;99818.03;;;17.51
78905;BMP280;68291;49.602;8.722;2023-03-20T14:15:02;99818.03;;;17.51
78905;BMP280;68291;49.602;8.722;2023-03-20T14:17:44;99810.53;;;17.59
78905;BMP280;68291;49.602;8.722;2023-03-20T14:20:34;99809.47;;;17.62
78905;BMP280;68291;49.602;8.722;2023-03-20T14:23:33;99802.81;;;17.58
78905;BMP280;68291;49.602;8.722;2023-03-20T14:26:19;99791.16;;;17.63
78905;BMP280;68291;49.602;8.722;2023-03-20T14:29:01;99793.00;;;17.74
78905;BMP280;68291;49.602;8.722;2023-03-20T14:32:33;99804.50;;;17.59
78905;BMP280;68291;49.602;8.722;2023-03-20T14:35:27;99803.34;;;17.50
78905;BMP280;68291;49.602;8.722;2023-03-20T14:38:24;99800.13;;;17.47
78905;BMP280;68291;49.602;8.722;2023-03-20T14:41:09;99809.47;;;17.49
78905;BMP280;68291;49.602;8.722;2023-03-20T14:44:03;99798.34;;;17.48
78905;BMP280;68291;49.602;8.722;2023-03-20T14:46:55;99807.19;;;17.45
78905;BMP280;68291;49.602;8.722;2023-03-20T14:49:54;99805.31;;;17.35
78905;BMP280;68291;49.602;8.722;2023-03-20T14:52:58;99808.25;;;17.30
78905;BMP280;68291;49.602;8.722;2023-03-20T14:56:09;99796.28;;;17.28
78905;BMP280;68291;49.602;8.722;2023-03-20T14:58:51;99794.31;;;17.31
78905;BMP280;68291;49.602;8.722;2023-03-20T15:01:47;99791.56;;;17.33
78905;BMP280;68291;49.602;8.722;2023-03-20T15:04:37;99786.50;;;17.31
78905;BMP280;68291;49.602;8.722;2023-03-20T15:07:28;99787.09;;;17.35
78905;BMP280;68291;49.602;8.722;2023-03-20T15:10:07;99781.56;;;17.39
78905;BMP280;68291;49.602;8.722;2023-03-20T15:13:18;99783.25;;;17.52
78905;BMP280;68291;49.602;8.722;2023-03-20T15:16:15;99782.91;;;17.69
78905;BMP280;68291;49.602;8.722;2023-03-20T15:18:51;99796.22;;;17.77
78905;BMP280;68291;49.602;8.722;2023-03-20T15:21:35;99790.47;;;17.84
78905;BMP280;68291;49.602;8.722;2023-03-20T15:24:20;99787.75;;;17.86
78905;BMP280;68291;49.602;8.722;2023-03-20T15:27:12;99783.78;;;17.93
78905;BMP280;68291;49.602;8.722;2023-03-20T15:30:22;99781.25;;;18.04
78905;BMP280;68291;49.602;8.722;2023-03-20T15:32:56;99787.81;;;18.21
78905;BMP280;68291;49.602;8.722;2023-03-20T15:35:44;99788.06;;;18.29
78905;BMP280;68291;49.602;8.722;2023-03-20T15:38:40;99798.50;;;18.29
78905;BMP280;68291;49.602;8.722;2023-03-20T15:41:34;99795.22;;;18.15
78905;BMP280;68291;49.602;8.722;2023-03-20T15:44:25;99800.88;;;18.09
78905;BMP280;68291;49.602;8.722;2023-03-20T15:47:13;99798.28;;;18.09
78905;BMP280;68291;49.602;8.722;2023-03-20T15:49:59;99800.44;;;18.15
78905;BMP280;68291;49.602;8.722;2023-03-20T15:52:45;99797.72;;;18.17
78905;BMP280;68291;49.602;8.722;2023-03-20T15:55:29;99787.28;;;18.17
78905;BMP280;68291;49.602;8.722;2023-03-20T15:58:13;99788.47;;;18.13
78905;BMP280;68291;49.602;8.722;2023-03-20T16:00:58;99790.97;;;18.02
78905;BMP280;68291;49.602;8.722;2023-03-20T16:03:47;99785.88;;;17.88
78905;BMP280;68291;49.602;8.722;2023-03-20T16:06:28;99789.47;;;17.75
78905;BMP280;68291;49.602;8.722;2023-03-20T16:09:15;99794.19;;;17.70
78905;BMP280;68291;49.602;8.722;2023-03-20T16:12:15;99802.72;;;17.59
78905;BMP280;68291;49.602;8.722;2023-03-20T16:15:05;99807.84;;;17.48
78905;BMP280;68291;49.602;8.722;2023-03-20T16:17:35;99809.47;;;17.37
78905;BMP280;68291;49.602;8.722;2023-03-20T16:20:38;99804.16;;;17.26
78905;BMP280;68291;49.602;8.722;2023-03-20T16:23:35;99825.16;;;17.11
78905;BMP280;68291;49.602;8.722;2023-03-20T16:26:16;99818.69;;;17.04
78905;BMP280;68291;49.602;8.722;2023-03-20T16:29:08;99812.34;;;16.96
78905;BMP280;68291;49.602;8.722;2023-03-20T16:31:51;99817.75;;;16.93
78905;BMP280;68291;49.602;8.722;2023-03-20T16:34:35;99827.50;;;16.89